Time,TemperatureF,DewpointF,PressureIn,WindDirection,WindDirectionDegrees,WindSpeedMPH,WindSpeedGustMPH,Humidity,HourlyPrecipIn,Conditions,Clouds,dailyrainin,SoftwareType,DateUTC
2013-08-21 00:01:00,70.6,62.1,30.06,SW,225,0.0,0.0,74,0.00,,,0.00,WUHU21623XXSP,2013-08-21 04:01:00,
2013-08-21 00:06:00,70.4,61.9,30.06,SW,225,0.0,0.0,74,0.00,,,0.00,WUHU21623XXSP,2013-08-21 04:06:00,
2013-08-21 00:11:00,70.5,61.9,30.07,SW,225,0.0,0.0,74,0.00,,,0.00,WUHU21623XXSP,2013-08-21 04:11:00,
2013-08-21 00:16:00,70.5,62.0,30.06,SW,225,0.0,0.0,74,0.00,,,0.00,WUHU21623XXSP,2013-08-21 04:16:00,
2013-08-21 00:21:00,70.1,61.6,30.07,SW,225,0.0,0.0,74,0.00,,,0.00,WUHU21623XXSP,2013-08-21 04:21:00,
2013-08-21 00:26:00,70.2,61.6,30.06,SW,225,0.0,0.0,74,0.00,,,0.00,WUHU21623XXSP,2013-08-21 04:26:00,
2013-08-21 00:31:00,70.2,61.7,30.06,SW,225,0.0,0.0,74,0.00,,,0.00,WUHU21623XXSP,2013-08-21 04:31:00,
2013-08-21 00:36:00,70.2,61.7,30.06,SW,225,0.0,0.0,74,0.00,,,0.00,WUHU21623XXSP,2013-08-21 04:36:00,
2013-08-21 00:41:00,70.1,61.5,30.06,SW,225,0.0,0.0,74,0.00,,,0.00,WUHU21623XXSP,2013-08-21 04:41:00,
2013-08-21 00:46:00,70.1,61.9,30.06,SW,225,0.0,0.0,75,0.00,,,0.00,WUHU21623XXSP,2013-08-21 04:46:00,
2013-08-21 00:51:00,70.0,61.9,30.06,SW,225,0.0,0.0,75,0.00,,,0.00,WUHU21623XXSP,2013-08-21 04:51:00,
2013-08-21 00:56:00,69.9,61.7,30.06,SW,225,0.0,0.0,75,0.00,,,0.00,WUHU21623XXSP,2013-08-21 04:56:00,
2013-08-21 01:01:00,69.9,61.7,30.06,SW,225,0.0,0.0,75,0.00,,,0.00,WUHU21623XXSP,2013-08-21 05:01:00,
2013-08-21 01:06:00,69.7,61.6,30.06,SW,225,0.0,0.0,75,0.00,,,0.00,WUHU21623XXSP,2013-08-21 05:06:00,
2013-08-21 01:11:00,69.8,61.6,30.06,SW,225,0.0,0.0,75,0.00,,,0.00,WUHU21623XXSP,2013-08-21 05:11:00,
2013-08-21 01:16:00,69.6,61.8,30.06,SW,225,0.0,0.0,76,0.00,,,0.00,WUHU21623XXSP,2013-08-21 05:16:00,
2013-08-21 01:21:00,69.6,61.8,30.06,SW,225,0.0,0.0,76,0.00,,,0.00,WUHU21623XXSP,2013-08-21 05:21:00,
2013-08-21 01:26:00,69.6,61.9,30.06,SW,225,0.0,0.0,76,0.00,,,0.00,WUHU21623XXSP,2013-08-21 05:26:00,
2013-08-21 01:31:00,69.5,61.7,30.06,SW,225,0.0,0.0,76,0.00,,,0.00,WUHU21623XXSP,2013-08-21 05:31:00,
2013-08-21 01:36:00,69.5,61.7,30.06,SW,225,0.0,0.0,76,0.00,,,0.00,WUHU21623XXSP,2013-08-21 05:36:00,
2013-08-21 01:43:00,69.4,61.6,30.06,SW,225,0.0,0.0,76,0.00,,,0.00,WUHU21623XXSP,2013-08-21 05:43:00,
2013-08-21 01:48:00,69.4,61.7,30.06,SW,225,0.0,0.0,76,0.00,,,0.00,WUHU21623XXSP,2013-08-21 05:48:00,
2013-08-21 01:53:00,69.3,61.5,30.06,SW,225,0.0,0.0,76,0.00,,,0.00,WUHU21623XXSP,2013-08-21 05:53:00,
2013-08-21 01:58:00,69.3,61.9,30.06,SW,225,0.0,0.0,77,0.00,,,0.00,WUHU21623XXSP,2013-08-21 05:58:00,
2013-08-21 02:03:00,69.1,61.7,30.06,SW,225,0.0,0.0,77,0.00,,,0.00,WUHU21623XXSP,2013-08-21 06:03:00,
2013-08-21 02:08:00,68.9,61.5,30.06,SW,225,0.0,0.0,77,0.00,,,0.00,WUHU21623XXSP,2013-08-21 06:08:00,
2013-08-21 02:13:00,68.9,61.9,30.06,SW,225,0.0,0.0,78,0.00,,,0.00,WUHU21623XXSP,2013-08-21 06:13:00,
2013-08-21 02:18:00,69.0,61.9,30.06,SW,225,0.0,0.0,78,0.00,,,0.00,WUHU21623XXSP,2013-08-21 06:18:00,
2013-08-21 02:23:00,68.8,61.7,30.06,SW,225,0.0,0.0,78,0.00,,,0.00,WUHU21623XXSP,2013-08-21 06:23:00,
2013-08-21 02:28:00,68.8,61.7,30.06,SW,225,0.0,0.0,78,0.00,,,0.00,WUHU21623XXSP,2013-08-21 06:28:00,
2013-08-21 02:33:00,68.5,61.5,30.06,SW,225,0.0,0.0,78,0.00,,,0.00,WUHU21623XXSP,2013-08-21 06:33:00,
2013-08-21 02:38:00,68.5,61.5,30.06,SW,225,0.0,0.0,78,0.00,,,0.00,WUHU21623XXSP,2013-08-21 06:38:00,
2013-08-21 02:43:00,68.5,61.5,30.06,SW,225,0.0,0.0,78,0.00,,,0.00,WUHU21623XXSP,2013-08-21 06:43:00,
2013-08-21 02:48:00,68.5,61.5,30.06,SW,225,0.0,0.0,78,0.00,,,0.00,WUHU21623XXSP,2013-08-21 06:48:00,
2013-08-21 02:53:00,68.3,61.3,30.06,SW,225,0.0,0.0,78,0.00,,,0.00,WUHU21623XXSP,2013-08-21 06:53:00,
2013-08-21 02:58:00,68.4,61.3,30.06,SW,225,0.0,0.0,78,0.00,,,0.00,WUHU21623XXSP,2013-08-21 06:58:00,
2013-08-21 03:03:00,68.4,61.3,30.06,SW,225,0.0,0.0,78,0.00,,,0.00,WUHU21623XXSP,2013-08-21 07:03:00,
2013-08-21 03:08:00,68.4,61.3,30.06,SW,225,0.0,0.0,78,0.00,,,0.00,WUHU21623XXSP,2013-08-21 07:08:00,
2013-08-21 03:13:00,68.4,61.7,30.06,SW,225,0.0,0.0,79,0.00,,,0.00,WUHU21623XXSP,2013-08-21 07:13:00,
2013-08-21 03:18:00,68.2,61.5,30.06,SW,225,0.0,0.0,79,0.00,,,0.00,WUHU21623XXSP,2013-08-21 07:18:00,
2013-08-21 03:23:00,68.2,61.5,30.05,SW,225,0.0,0.0,79,0.00,,,0.00,WUHU21623XXSP,2013-08-21 07:23:00,
2013-08-21 03:28:00,68.0,61.3,30.06,SW,225,0.0,0.0,79,0.00,,,0.00,WUHU21623XXSP,2013-08-21 07:28:00,
2013-08-21 03:33:00,68.0,61.3,30.05,SW,225,0.0,0.0,79,0.00,,,0.00,WUHU21623XXSP,2013-08-21 07:33:00,
2013-08-21 03:38:00,68.0,61.3,30.05,SW,225,0.0,0.0,79,0.00,,,0.00,WUHU21623XXSP,2013-08-21 07:38:00,
2013-08-21 03:43:00,67.9,61.2,30.05,SW,225,0.0,0.0,79,0.00,,,0.00,WUHU21623XXSP,2013-08-21 07:43:00,
2013-08-21 03:48:00,67.9,61.2,30.05,SW,225,0.0,0.0,79,0.00,,,0.00,WUHU21623XXSP,2013-08-21 07:48:00,
2013-08-21 03:53:00,67.7,61.0,30.05,SW,225,0.0,0.0,79,0.00,,,0.00,WUHU21623XXSP,2013-08-21 07:53:00,
2013-08-21 03:58:00,67.7,61.4,30.05,SW,225,0.0,0.0,80,0.00,,,0.00,WUHU21623XXSP,2013-08-21 07:58:00,
2013-08-21 04:03:00,67.7,61.4,30.04,SW,225,0.0,0.0,80,0.00,,,0.00,WUHU21623XXSP,2013-08-21 08:03:00,
2013-08-21 04:08:00,67.5,61.2,30.05,SW,225,0.0,0.0,80,0.00,,,0.00,WUHU21623XXSP,2013-08-21 08:08:00,
2013-08-21 04:13:00,67.5,61.2,30.05,SW,225,0.0,0.0,80,0.00,,,0.00,WUHU21623XXSP,2013-08-21 08:13:00,
2013-08-21 04:18:00,67.3,61.0,30.05,SW,225,0.0,0.0,80,0.00,,,0.00,WUHU21623XXSP,2013-08-21 08:18:00,
2013-08-21 04:23:00,67.5,61.2,30.05,SW,225,0.0,0.0,80,0.00,,,0.00,WUHU21623XXSP,2013-08-21 08:23:00,
2013-08-21 04:28:00,67.5,61.1,30.05,SW,225,0.0,0.0,80,0.00,,,0.00,WUHU21623XXSP,2013-08-21 08:28:00,
2013-08-21 04:33:00,67.2,61.3,30.05,SW,225,0.0,0.0,81,0.00,,,0.00,WUHU21623XXSP,2013-08-21 08:33:00,
2013-08-21 04:38:00,67.2,61.3,30.05,SW,225,0.0,0.0,81,0.00,,,0.00,WUHU21623XXSP,2013-08-21 08:38:00,
2013-08-21 04:44:00,67.2,61.3,30.05,SW,225,0.0,0.0,81,0.00,,,0.00,WUHU21623XXSP,2013-08-21 08:44:00,
2013-08-21 04:49:00,67.2,61.6,30.05,SW,225,0.0,0.0,82,0.00,,,0.00,WUHU21623XXSP,2013-08-21 08:49:00,
2013-08-21 04:54:00,67.0,61.4,30.05,SW,225,0.0,0.0,82,0.00,,,0.00,WUHU21623XXSP,2013-08-21 08:54:00,
2013-08-21 04:59:00,67.0,61.4,30.05,SW,225,0.0,0.0,82,0.00,,,0.00,WUHU21623XXSP,2013-08-21 08:59:00,
2013-08-21 05:04:00,66.9,61.2,30.05,SW,225,0.0,0.0,82,0.00,,,0.00,WUHU21623XXSP,2013-08-21 09:04:00,
2013-08-21 05:09:00,66.7,61.0,30.05,SW,225,0.0,0.0,82,0.00,,,0.00,WUHU21623XXSP,2013-08-21 09:09:00,
2013-08-21 05:14:00,66.6,61.0,30.05,SW,225,0.0,0.0,82,0.00,,,0.00,WUHU21623XXSP,2013-08-21 09:14:00,
2013-08-21 05:19:00,66.6,60.7,30.05,SW,225,0.0,0.0,81,0.00,,,0.00,WUHU21623XXSP,2013-08-21 09:19:00,
2013-08-21 05:24:00,66.4,60.4,30.05,SW,225,0.0,0.0,81,0.00,,,0.00,WUHU21623XXSP,2013-08-21 09:24:00,
2013-08-21 05:29:00,66.2,60.2,30.05,SW,225,0.0,0.0,81,0.00,,,0.00,WUHU21623XXSP,2013-08-21 09:29:00,
2013-08-21 05:34:00,66.2,60.2,30.05,SW,225,0.0,0.0,81,0.00,,,0.00,WUHU21623XXSP,2013-08-21 09:34:00,
2013-08-21 05:39:00,66.1,60.2,30.05,SW,225,0.0,0.0,81,0.00,,,0.00,WUHU21623XXSP,2013-08-21 09:39:00,
2013-08-21 05:44:00,65.9,60.0,30.05,SW,225,0.0,0.0,81,0.00,,,0.00,WUHU21623XXSP,2013-08-21 09:44:00,
2013-08-21 05:49:00,65.9,59.9,30.06,SW,225,0.0,0.0,81,0.00,,,0.00,WUHU21623XXSP,2013-08-21 09:49:00,
2013-08-21 05:54:00,65.9,60.3,30.06,SW,225,0.0,0.0,82,0.00,,,0.00,WUHU21623XXSP,2013-08-21 09:54:00,
2013-08-21 05:59:00,65.7,60.1,30.06,SW,225,0.0,0.0,82,0.00,,,0.00,WUHU21623XXSP,2013-08-21 09:59:00,
2013-08-21 06:04:00,65.7,60.1,30.06,SW,225,0.0,0.0,82,0.00,,,0.00,WUHU21623XXSP,2013-08-21 10:04:00,
2013-08-21 06:09:00,65.5,59.9,30.06,SW,225,0.0,0.0,82,0.00,,,0.00,WUHU21623XXSP,2013-08-21 10:09:00,
2013-08-21 06:14:00,65.5,59.9,30.06,SW,225,0.0,0.0,82,0.00,,,0.00,WUHU21623XXSP,2013-08-21 10:14:00,
2013-08-21 06:19:00,65.4,59.8,30.06,SW,225,0.0,0.0,82,0.00,,,0.00,WUHU21623XXSP,2013-08-21 10:19:00,
2013-08-21 06:24:00,65.2,59.6,30.06,SW,225,0.0,0.0,82,0.00,,,0.00,WUHU21623XXSP,2013-08-21 10:24:00,
2013-08-21 06:29:00,65.0,59.4,30.06,SW,225,0.0,0.0,82,0.00,,,0.00,WUHU21623XXSP,2013-08-21 10:29:00,
2013-08-21 06:34:00,64.9,59.4,30.06,SW,225,0.0,0.0,82,0.00,,,0.00,WUHU21623XXSP,2013-08-21 10:34:00,
2013-08-21 06:39:00,64.9,59.3,30.06,SW,225,0.0,0.0,82,0.00,,,0.00,WUHU21623XXSP,2013-08-21 10:39:00,
2013-08-21 06:44:00,64.9,59.3,30.07,SW,225,0.0,0.0,82,0.00,,,0.00,WUHU21623XXSP,2013-08-21 10:44:00,
2013-08-21 06:49:00,64.6,59.4,30.07,SW,225,0.0,0.0,83,0.00,,,0.00,WUHU21623XXSP,2013-08-21 10:49:00,
2013-08-21 06:54:00,64.6,59.4,30.07,SW,225,0.0,0.0,83,0.00,,,0.00,WUHU21623XXSP,2013-08-21 10:54:00,
2013-08-21 06:59:00,64.6,59.3,30.07,SW,225,0.0,0.0,83,0.00,,,0.00,WUHU21623XXSP,2013-08-21 10:59:00,
2013-08-21 07:04:00,64.4,59.2,30.07,SW,225,0.0,0.0,83,0.00,,,0.00,WUHU21623XXSP,2013-08-21 11:04:00,
2013-08-21 07:09:00,64.2,58.6,30.07,SW,225,0.0,0.0,82,0.00,,,0.00,WUHU21623XXSP,2013-08-21 11:09:00,
2013-08-21 07:14:00,64.2,58.6,30.07,SW,225,0.0,0.0,82,0.00,,,0.00,WUHU21623XXSP,2013-08-21 11:14:00,
2013-08-21 07:19:00,64.1,58.6,30.07,SW,225,0.0,0.0,82,0.00,,,0.00,WUHU21623XXSP,2013-08-21 11:19:00,
2013-08-21 07:24:00,64.1,58.5,30.07,SW,225,0.0,0.0,82,0.00,,,0.00,WUHU21623XXSP,2013-08-21 11:24:00,
2013-08-21 07:29:00,64.1,58.5,30.07,SW,225,0.0,0.0,82,0.00,,,0.00,WUHU21623XXSP,2013-08-21 11:29:00,
2013-08-21 07:34:00,64.0,58.8,30.07,SW,225,0.0,0.0,83,0.00,,,0.00,WUHU21623XXSP,2013-08-21 11:34:00,
2013-08-21 07:39:00,64.0,58.8,30.07,SW,225,0.0,0.0,83,0.00,,,0.00,WUHU21623XXSP,2013-08-21 11:39:00,
2013-08-21 07:44:00,64.2,58.9,30.08,SW,225,0.0,0.0,83,0.00,,,0.00,WUHU21623XXSP,2013-08-21 11:44:00,
2013-08-21 07:49:00,64.2,59.0,30.08,SW,225,0.0,0.0,83,0.00,,,0.00,WUHU21623XXSP,2013-08-21 11:49:00,
2013-08-21 07:54:00,64.2,58.9,30.08,SW,225,0.0,0.0,83,0.00,,,0.00,WUHU21623XXSP,2013-08-21 11:54:00,
2013-08-21 07:59:00,64.1,58.9,30.08,SW,225,0.0,0.0,83,0.00,,,0.00,WUHU21623XXSP,2013-08-21 11:59:00,
2013-08-21 08:05:00,64.3,59.1,30.08,SW,225,0.0,0.0,83,0.00,,,0.00,WUHU21623XXSP,2013-08-21 12:05:00,
2013-08-21 08:10:00,64.7,59.4,30.08,SW,225,0.0,0.0,83,0.00,,,0.00,WUHU21623XXSP,2013-08-21 12:10:00,
2013-08-21 08:15:00,64.8,59.6,30.08,SW,225,0.0,0.0,83,0.00,,,0.00,WUHU21623XXSP,2013-08-21 12:15:00,
2013-08-21 08:20:00,65.1,60.1,30.08,SW,225,0.0,0.0,84,0.00,,,0.00,WUHU21623XXSP,2013-08-21 12:20:00,
2013-08-21 08:25:00,65.4,60.5,30.09,SW,225,0.0,0.0,84,0.00,,,0.00,WUHU21623XXSP,2013-08-21 12:25:00,
2013-08-21 08:30:00,65.9,61.3,30.09,SW,225,0.0,0.0,85,0.00,,,0.00,WUHU21623XXSP,2013-08-21 12:30:00,
2013-08-21 08:35:00,66.5,61.8,30.09,SW,225,0.0,0.0,85,0.00,,,0.00,WUHU21623XXSP,2013-08-21 12:35:00,
2013-08-21 08:40:00,66.7,62.1,30.09,SW,225,0.0,0.0,85,0.00,,,0.00,WUHU21623XXSP,2013-08-21 12:40:00,
2013-08-21 08:45:00,67.1,62.5,30.09,SW,225,0.0,0.0,85,0.00,,,0.00,WUHU21623XXSP,2013-08-21 12:45:00,
2013-08-21 08:50:00,67.6,63.0,30.09,SW,225,0.0,0.0,85,0.00,,,0.00,WUHU21623XXSP,2013-08-21 12:50:00,
2013-08-21 08:55:00,68.0,63.3,30.09,SW,225,0.0,0.0,85,0.00,,,0.00,WUHU21623XXSP,2013-08-21 12:55:00,
2013-08-21 09:00:00,68.5,63.8,30.09,SW,225,0.0,0.0,85,0.00,,,0.00,WUHU21623XXSP,2013-08-21 13:00:00,
2013-08-21 09:05:00,68.9,64.2,30.09,SW,225,0.0,0.0,85,0.00,,,0.00,WUHU21623XXSP,2013-08-21 13:05:00,
2013-08-21 09:10:00,69.4,64.4,30.08,SW,225,0.0,0.0,84,0.00,,,0.00,WUHU21623XXSP,2013-08-21 13:10:00,
2013-08-21 09:15:00,69.8,64.8,30.08,SW,225,0.0,0.0,84,0.00,,,0.00,WUHU21623XXSP,2013-08-21 13:15:00,
2013-08-21 09:20:00,70.3,65.3,30.09,SW,225,0.0,0.0,84,0.00,,,0.00,WUHU21623XXSP,2013-08-21 13:20:00,
2013-08-21 09:25:00,71.0,65.6,30.09,WSW,247,0.0,0.0,83,0.00,,,0.00,WUHU21623XXSP,2013-08-21 13:25:00,
2013-08-21 09:30:00,71.4,66.0,30.09,WSW,247,0.0,0.0,83,0.00,,,0.00,WUHU21623XXSP,2013-08-21 13:30:00,
2013-08-21 09:35:00,71.9,66.5,30.09,WSW,247,0.0,0.0,83,0.00,,,0.00,WUHU21623XXSP,2013-08-21 13:35:00,
2013-08-21 09:40:00,72.7,67.0,30.08,WSW,247,0.0,0.0,82,0.00,,,0.00,WUHU21623XXSP,2013-08-21 13:40:00,
2013-08-21 09:45:00,73.4,67.3,30.08,WSW,247,0.0,0.0,81,0.00,,,0.00,WUHU21623XXSP,2013-08-21 13:45:00,
2013-08-21 09:50:00,74.1,67.6,30.08,WSW,247,0.0,0.0,80,0.00,,,0.00,WUHU21623XXSP,2013-08-21 13:50:00,
2013-08-21 09:55:00,75.0,67.8,30.08,WSW,247,0.0,0.0,78,0.00,,,0.00,WUHU21623XXSP,2013-08-21 13:55:00,
2013-08-21 10:00:00,76.1,68.5,30.08,WSW,247,0.0,0.0,77,0.00,,,0.00,WUHU21623XXSP,2013-08-21 14:00:00,
2013-08-21 10:05:00,77.0,69.0,30.08,SW,225,0.0,0.0,76,0.00,,,0.00,WUHU21623XXSP,2013-08-21 14:05:00,
2013-08-21 10:10:00,77.9,69.1,30.08,SW,225,0.0,0.0,74,0.00,,,0.00,WUHU21623XXSP,2013-08-21 14:10:00,
2013-08-21 10:15:00,78.8,69.6,30.08,WSW,247,0.0,0.0,73,0.00,,,0.00,WUHU21623XXSP,2013-08-21 14:15:00,
2013-08-21 10:20:00,79.7,69.7,30.07,SW,225,0.0,0.0,71,0.00,,,0.00,WUHU21623XXSP,2013-08-21 14:20:00,
2013-08-21 10:25:00,80.4,69.5,30.08,SW,225,0.0,0.0,69,0.00,,,0.00,WUHU21623XXSP,2013-08-21 14:25:00,
2013-08-21 10:30:00,81.1,69.8,30.08,SW,225,0.0,0.0,68,0.00,,,0.00,WUHU21623XXSP,2013-08-21 14:30:00,
2013-08-21 10:35:00,81.8,69.6,30.08,WSW,247,0.0,0.0,66,0.00,,,0.00,WUHU21623XXSP,2013-08-21 14:35:00,
2013-08-21 10:40:00,82.4,69.7,30.07,SW,225,0.0,0.0,65,0.00,,,0.00,WUHU21623XXSP,2013-08-21 14:40:00,
2013-08-21 10:46:00,82.9,69.3,30.08,SW,225,0.0,0.0,63,0.00,,,0.00,WUHU21623XXSP,2013-08-21 14:46:00,
2013-08-21 10:51:00,83.3,69.7,30.08,SW,225,0.0,0.0,63,0.00,,,0.00,WUHU21623XXSP,2013-08-21 14:51:00,
2013-08-21 10:56:00,83.6,69.1,30.08,SW,225,0.0,0.0,61,0.00,,,0.00,WUHU21623XXSP,2013-08-21 14:56:00,
2013-08-21 11:01:00,83.7,69.3,30.08,SW,225,0.0,0.0,61,0.00,,,0.00,WUHU21623XXSP,2013-08-21 15:01:00,
2013-08-21 11:06:00,84.1,69.3,30.08,West,270,0.0,0.0,61,0.00,,,0.00,WUHU21623XXSP,2013-08-21 15:06:00,
2013-08-21 11:11:00,84.3,68.5,30.08,WSW,247,0.0,0.0,59,0.00,,,0.00,WUHU21623XXSP,2013-08-21 15:11:00,
2013-08-21 11:16:00,84.4,68.6,30.08,SW,225,0.0,0.0,59,0.00,,,0.00,WUHU21623XXSP,2013-08-21 15:16:00,
2013-08-21 11:21:00,84.3,68.1,30.08,West,270,0.0,0.0,58,0.00,,,0.00,WUHU21623XXSP,2013-08-21 15:21:00,
2013-08-21 11:26:00,84.1,68.5,30.08,West,270,0.0,0.0,59,0.00,,,0.00,WUHU21623XXSP,2013-08-21 15:26:00,
2013-08-21 11:31:00,84.3,68.2,30.08,WSW,247,0.0,0.0,58,0.00,,,0.00,WUHU21623XXSP,2013-08-21 15:31:00,
2013-08-21 11:36:00,84.5,68.0,30.08,SW,225,0.0,0.0,57,0.00,,,0.00,WUHU21623XXSP,2013-08-21 15:36:00,
2013-08-21 11:41:00,84.5,68.5,30.08,WSW,247,0.0,0.0,58,0.00,,,0.00,WUHU21623XXSP,2013-08-21 15:41:00,
2013-08-21 11:46:00,84.7,68.3,30.08,SW,225,0.0,0.0,57,0.00,,,0.00,WUHU21623XXSP,2013-08-21 15:46:00,
2013-08-21 11:51:00,85.2,68.3,30.09,WSW,247,0.0,0.0,57,0.00,,,0.00,WUHU21623XXSP,2013-08-21 15:51:00,
2013-08-21 11:56:00,85.4,68.5,30.08,WSW,247,0.0,0.0,57,0.00,,,0.00,WUHU21623XXSP,2013-08-21 15:56:00,
2013-08-21 12:01:00,85.8,68.9,30.08,WSW,247,0.0,0.0,57,0.00,,,0.00,WUHU21623XXSP,2013-08-21 16:01:00,
2013-08-21 12:07:00,86.1,68.7,30.08,West,270,0.0,0.0,56,0.00,,,0.00,WUHU21623XXSP,2013-08-21 16:07:00,
2013-08-21 12:12:00,86.3,68.9,30.08,SW,225,0.0,0.0,56,0.00,,,0.00,WUHU21623XXSP,2013-08-21 16:12:00,
2013-08-21 12:17:00,86.2,69.0,30.08,West,270,0.0,0.0,56,0.00,,,0.00,WUHU21623XXSP,2013-08-21 16:17:00,
2013-08-21 12:22:00,86.0,68.3,30.08,WSW,247,0.0,0.0,55,0.00,,,0.00,WUHU21623XXSP,2013-08-21 16:22:00,
2013-08-21 12:27:00,86.2,68.0,30.08,WSW,247,0.0,0.0,54,0.00,,,0.00,WUHU21623XXSP,2013-08-21 16:27:00,
2013-08-21 12:32:00,86.6,68.4,30.08,SW,225,0.0,0.0,54,0.00,,,0.00,WUHU21623XXSP,2013-08-21 16:32:00,
2013-08-21 12:37:00,86.6,67.9,30.08,WSW,247,0.0,0.0,54,0.00,,,0.00,WUHU21623XXSP,2013-08-21 16:37:00,
2013-08-21 12:42:00,86.4,67.7,30.08,SW,225,0.0,0.0,54,0.00,,,0.00,WUHU21623XXSP,2013-08-21 16:42:00,
2013-08-21 12:47:00,86.2,68.1,30.08,WNW,292,0.0,0.0,55,0.00,,,0.00,WUHU21623XXSP,2013-08-21 16:47:00,
2013-08-21 12:52:00,85.7,67.2,30.07,WSW,247,0.0,0.0,54,0.00,,,0.00,WUHU21623XXSP,2013-08-21 16:52:00,
2013-08-21 12:57:00,85.2,67.4,30.07,West,270,0.0,0.0,55,0.00,,,0.00,WUHU21623XXSP,2013-08-21 16:57:00,
2013-08-21 13:02:00,85.6,68.3,30.07,West,270,0.0,0.0,56,0.00,,,0.00,WUHU21623XXSP,2013-08-21 17:02:00,
2013-08-21 13:07:00,86.5,68.7,30.07,SSW,202,0.0,0.0,55,0.00,,,0.00,WUHU21623XXSP,2013-08-21 17:07:00,
2013-08-21 13:12:00,87.2,68.8,30.07,WSW,247,0.0,0.0,54,0.00,,,0.00,WUHU21623XXSP,2013-08-21 17:12:00,
2013-08-21 13:17:00,88.1,69.1,30.06,SW,225,0.0,0.0,53,0.00,,,0.00,WUHU21623XXSP,2013-08-21 17:17:00,
2013-08-21 13:22:00,88.6,69.6,30.06,West,270,0.0,0.0,53,0.00,,,0.00,WUHU21623XXSP,2013-08-21 17:22:00,
2013-08-21 13:27:00,88.3,68.8,30.06,West,270,0.0,0.0,52,0.00,,,0.00,WUHU21623XXSP,2013-08-21 17:27:00,
2013-08-21 13:33:00,88.1,69.2,30.06,WSW,247,0.0,0.0,53,0.00,,,0.00,WUHU21623XXSP,2013-08-21 17:33:00,
2013-08-21 13:38:00,87.7,68.9,30.05,West,270,0.0,0.0,53,0.00,,,0.00,WUHU21623XXSP,2013-08-21 17:38:00,
2013-08-21 13:43:00,87.2,69.0,30.05,SW,225,0.0,0.0,55,0.00,,,0.00,WUHU21623XXSP,2013-08-21 17:43:00,
2013-08-21 13:48:00,87.2,69.5,30.05,SW,225,0.0,0.0,56,0.00,,,0.00,WUHU21623XXSP,2013-08-21 17:48:00,
2013-08-21 13:53:00,87.7,69.5,30.05,West,270,0.0,0.0,55,0.00,,,0.00,WUHU21623XXSP,2013-08-21 17:53:00,
2013-08-21 13:58:00,87.6,69.5,30.06,West,270,0.0,0.0,55,0.00,,,0.00,WUHU21623XXSP,2013-08-21 17:58:00,
2013-08-21 14:03:00,87.3,69.8,30.06,WNW,292,0.0,0.0,56,0.00,,,0.00,WUHU21623XXSP,2013-08-21 18:03:00,
2013-08-21 14:08:00,86.7,69.3,30.06,SW,225,0.0,0.0,56,0.00,,,0.00,WUHU21623XXSP,2013-08-21 18:08:00,
2013-08-21 14:13:00,86.7,69.8,30.05,WSW,247,0.0,0.0,57,0.00,,,0.00,WUHU21623XXSP,2013-08-21 18:13:00,
2013-08-21 14:18:00,87.1,70.2,30.05,WSW,247,0.0,0.0,57,0.00,,,0.00,WUHU21623XXSP,2013-08-21 18:18:00,
2013-08-21 14:23:00,87.6,70.1,30.05,SW,225,0.0,0.0,56,0.00,,,0.00,WUHU21623XXSP,2013-08-21 18:23:00,
2013-08-21 14:29:00,88.2,70.7,30.05,West,270,0.0,0.0,56,0.00,,,0.00,WUHU21623XXSP,2013-08-21 18:29:00,
2013-08-21 14:34:00,88.0,70.5,30.05,West,270,0.0,0.0,56,0.00,,,0.00,WUHU21623XXSP,2013-08-21 18:34:00,
2013-08-21 14:39:00,87.6,70.2,30.05,West,270,0.0,0.0,56,0.00,,,0.00,WUHU21623XXSP,2013-08-21 18:39:00,
2013-08-21 14:44:00,87.5,70.6,30.04,WSW,247,0.0,0.0,57,0.00,,,0.00,WUHU21623XXSP,2013-08-21 18:44:00,
2013-08-21 14:49:00,88.2,70.8,30.05,WSW,247,0.0,0.0,56,0.00,,,0.00,WUHU21623XXSP,2013-08-21 18:49:00,
2013-08-21 14:54:00,88.5,70.5,30.05,WNW,292,0.0,0.0,55,0.00,,,0.00,WUHU21623XXSP,2013-08-21 18:54:00,
2013-08-21 14:59:00,88.5,71.1,30.05,WSW,247,0.0,0.0,56,0.00,,,0.00,WUHU21623XXSP,2013-08-21 18:59:00,
2013-08-21 15:04:00,88.5,71.1,30.05,WSW,247,0.0,0.0,56,0.00,,,0.00,WUHU21623XXSP,2013-08-21 19:04:00,
2013-08-21 15:09:00,88.7,71.2,30.05,SW,225,0.0,0.0,56,0.00,,,0.00,WUHU21623XXSP,2013-08-21 19:09:00,
2013-08-21 15:14:00,88.7,70.7,30.05,SW,225,0.0,0.0,55,0.00,,,0.00,WUHU21623XXSP,2013-08-21 19:14:00,
2013-08-21 15:19:00,88.7,71.2,30.05,SW,225,0.0,0.0,56,0.00,,,0.00,WUHU21623XXSP,2013-08-21 19:19:00,
2013-08-21 15:24:00,89.1,71.1,30.04,SW,225,0.0,0.0,55,0.00,,,0.00,WUHU21623XXSP,2013-08-21 19:24:00,
2013-08-21 15:29:00,89.4,71.3,30.04,SW,225,0.0,0.0,55,0.00,,,0.00,WUHU21623XXSP,2013-08-21 19:29:00,
2013-08-21 15:34:00,89.6,71.0,30.04,SW,225,0.0,0.0,54,0.00,,,0.00,WUHU21623XXSP,2013-08-21 19:34:00,
2013-08-21 15:39:00,90.0,71.3,30.04,SW,225,0.0,0.0,54,0.00,,,0.00,WUHU21623XXSP,2013-08-21 19:39:00,
2013-08-21 15:44:00,90.3,71.0,30.03,WSW,247,0.0,0.0,53,0.00,,,0.00,WUHU21623XXSP,2013-08-21 19:44:00,
2013-08-21 15:49:00,90.3,72.2,30.03,WSW,247,0.0,0.0,55,0.00,,,0.00,WUHU21623XXSP,2013-08-21 19:49:00,
2013-08-21 15:54:00,90.5,71.8,30.03,WSW,247,0.0,0.0,54,0.00,,,0.00,WUHU21623XXSP,2013-08-21 19:54:00,
2013-08-21 15:59:00,90.9,71.6,30.03,SW,225,0.0,0.0,53,0.00,,,0.00,WUHU21623XXSP,2013-08-21 19:59:00,
2013-08-21 16:04:00,91.4,71.4,30.02,SW,225,0.0,0.0,52,0.00,,,0.00,WUHU21623XXSP,2013-08-21 20:04:00,
2013-08-21 16:09:00,91.6,71.6,30.02,SW,225,0.0,0.0,52,0.00,,,0.00,WUHU21623XXSP,2013-08-21 20:09:00,
2013-08-21 16:14:00,91.6,71.6,30.02,West,270,0.0,0.0,52,0.00,,,0.00,WUHU21623XXSP,2013-08-21 20:14:00,
2013-08-21 16:19:00,91.6,71.0,30.02,SSW,202,0.0,0.0,51,0.00,,,0.00,WUHU21623XXSP,2013-08-21 20:19:00,
2013-08-21 16:24:00,92.0,71.9,30.02,SSW,202,0.0,0.0,52,0.00,,,0.00,WUHU21623XXSP,2013-08-21 20:24:00,
2013-08-21 16:29:00,92.3,71.6,30.01,WSW,247,0.0,0.0,51,0.00,,,0.00,WUHU21623XXSP,2013-08-21 20:29:00,
2013-08-21 16:34:00,91.9,71.1,30.02,WSW,247,0.0,0.0,51,0.00,,,0.00,WUHU21623XXSP,2013-08-21 20:34:00,
2013-08-21 16:40:00,91.3,71.1,30.01,WSW,247,0.0,0.0,52,0.00,,,0.00,WUHU21623XXSP,2013-08-21 20:40:00,
2013-08-21 16:45:00,91.3,71.1,30.01,WSW,247,0.0,0.0,51,0.00,,,0.00,WUHU21623XXSP,2013-08-21 20:45:00,
2013-08-21 16:50:00,91.3,71.0,30.01,SSW,202,0.0,0.0,51,0.00,,,0.00,WUHU21623XXSP,2013-08-21 20:50:00,
2013-08-21 16:55:00,91.7,71.4,30.01,SSW,202,0.0,0.0,51,0.00,,,0.00,WUHU21623XXSP,2013-08-21 20:55:00,
2013-08-21 17:00:00,91.9,70.9,30.01,SW,225,0.0,0.0,50,0.00,,,0.00,WUHU21623XXSP,2013-08-21 21:00:00,
2013-08-21 17:05:00,91.3,70.4,30.01,SW,225,0.0,0.0,50,0.00,,,0.00,WUHU21623XXSP,2013-08-21 21:05:00,
2013-08-21 17:10:00,91.3,70.3,30.00,SW,225,0.0,0.0,50,0.00,,,0.00,WUHU21623XXSP,2013-08-21 21:10:00,
2013-08-21 17:15:00,91.2,70.2,30.01,West,270,0.0,0.0,50,0.00,,,0.00,WUHU21623XXSP,2013-08-21 21:15:00,
2013-08-21 17:20:00,91.0,70.0,30.00,SW,225,0.0,0.0,50,0.00,,,0.00,WUHU21623XXSP,2013-08-21 21:20:00,
2013-08-21 17:25:00,91.0,69.9,30.00,SSW,202,0.0,0.0,50,0.00,,,0.00,WUHU21623XXSP,2013-08-21 21:25:00,
2013-08-21 17:30:00,91.4,70.2,30.00,SSW,202,0.0,0.0,50,0.00,,,0.00,WUHU21623XXSP,2013-08-21 21:30:00,
2013-08-21 17:35:00,91.4,70.1,30.00,SW,225,0.0,0.0,50,0.00,,,0.00,WUHU21623XXSP,2013-08-21 21:35:00,
2013-08-21 17:41:00,91.4,70.1,30.00,North,0,0.0,0.0,50,0.00,,,0.00,WUHU21623XXSP,2013-08-21 21:41:00,
2013-08-21 17:46:00,90.9,69.6,30.00,SW,225,0.0,0.0,50,0.00,,,0.00,WUHU21623XXSP,2013-08-21 21:46:00,
2013-08-21 17:51:00,90.7,69.9,30.00,WSW,247,0.0,0.0,50,0.00,,,0.00,WUHU21623XXSP,2013-08-21 21:51:00,
2013-08-21 17:56:00,90.2,69.4,29.99,WSW,247,0.0,0.0,50,0.00,,,0.00,WUHU21623XXSP,2013-08-21 21:56:00,
2013-08-21 18:01:00,89.6,69.4,29.99,SW,225,0.0,0.0,51,0.00,,,0.00,WUHU21623XXSP,2013-08-21 22:01:00,
2013-08-21 18:06:00,89.3,69.1,29.99,SSW,202,0.0,0.0,51,0.00,,,0.00,WUHU21623XXSP,2013-08-21 22:06:00,
2013-08-21 18:11:00,89.3,69.1,29.99,SSW,202,0.0,0.0,51,0.00,,,0.00,WUHU21623XXSP,2013-08-21 22:11:00,
2013-08-21 18:16:00,89.0,69.2,29.99,SSW,202,0.0,0.0,52,0.00,,,0.00,WUHU21623XXSP,2013-08-21 22:16:00,
2013-08-21 18:21:00,88.8,69.0,29.99,SSW,202,0.0,0.0,52,0.00,,,0.00,WUHU21623XXSP,2013-08-21 22:21:00,
2013-08-21 18:26:00,88.3,68.5,29.98,WSW,247,0.0,0.0,52,0.00,,,0.00,WUHU21623XXSP,2013-08-21 22:26:00,
2013-08-21 18:31:00,87.9,68.1,29.98,WSW,247,0.0,0.0,52,0.00,,,0.00,WUHU21623XXSP,2013-08-21 22:31:00,
2013-08-21 18:37:00,87.6,68.3,29.98,SW,225,0.0,0.0,53,0.00,,,0.00,WUHU21623XXSP,2013-08-21 22:37:00,
2013-08-21 18:42:00,87.6,68.2,29.98,SW,225,0.0,0.0,52,0.00,,,0.00,WUHU21623XXSP,2013-08-21 22:42:00,
2013-08-21 18:47:00,87.2,67.8,29.98,SW,225,0.0,0.0,52,0.00,,,0.00,WUHU21623XXSP,2013-08-21 22:47:00,
2013-08-21 18:52:00,87.1,67.6,29.98,SW,225,0.0,0.0,52,0.00,,,0.00,WUHU21623XXSP,2013-08-21 22:52:00,
2013-08-21 18:57:00,86.8,67.8,29.98,SW,225,0.0,0.0,53,0.00,,,0.00,WUHU21623XXSP,2013-08-21 22:57:00,
2013-08-21 19:02:00,86.8,67.8,29.97,SW,225,0.0,0.0,53,0.00,,,0.00,WUHU21623XXSP,2013-08-21 23:02:00,
2013-08-21 19:07:00,86.8,67.7,29.96,SW,225,0.0,0.0,53,0.00,,,0.00,WUHU21623XXSP,2013-08-21 23:07:00,
2013-08-21 19:12:00,86.4,67.3,29.97,SW,225,0.0,0.0,53,0.00,,,0.00,WUHU21623XXSP,2013-08-21 23:12:00,
2013-08-21 19:17:00,86.2,67.6,29.97,SW,225,0.0,0.0,54,0.00,,,0.00,WUHU21623XXSP,2013-08-21 23:17:00,
2013-08-21 19:22:00,86.1,67.5,29.96,SW,225,0.0,0.0,54,0.00,,,0.00,WUHU21623XXSP,2013-08-21 23:22:00,
2013-08-21 19:27:00,86.0,67.2,29.96,WSW,247,0.0,0.0,53,0.00,,,0.00,WUHU21623XXSP,2013-08-21 23:27:00,
2013-08-21 19:32:00,86.0,67.7,29.96,WSW,247,0.0,0.0,54,0.00,,,0.00,WUHU21623XXSP,2013-08-21 23:32:00,
2013-08-21 19:37:00,85.6,67.3,29.96,WSW,247,0.0,0.0,54,0.00,,,0.00,WUHU21623XXSP,2013-08-21 23:37:00,
2013-08-21 19:42:00,85.6,67.3,29.96,WSW,247,0.0,0.0,54,0.00,,,0.00,WUHU21623XXSP,2013-08-21 23:42:00,
2013-08-21 19:47:00,85.4,67.6,29.96,WSW,247,0.0,0.0,55,0.00,,,0.00,WUHU21623XXSP,2013-08-21 23:47:00,
2013-08-21 19:52:00,85.1,67.3,29.96,WSW,247,0.0,0.0,55,0.00,,,0.00,WUHU21623XXSP,2013-08-21 23:52:00,
2013-08-21 19:57:00,84.7,67.0,29.96,WSW,247,0.0,0.0,55,0.00,,,0.00,WUHU21623XXSP,2013-08-21 23:57:00,
2013-08-21 20:02:00,84.5,66.8,29.96,WSW,247,0.0,0.0,55,0.00,,,0.00,WUHU21623XXSP,2013-08-22 00:02:00,
2013-08-21 20:07:00,84.2,67.0,29.95,WSW,247,0.0,0.0,56,0.00,,,0.00,WUHU21623XXSP,2013-08-22 00:07:00,
2013-08-21 20:12:00,83.8,66.7,29.96,WSW,247,0.0,0.0,56,0.00,,,0.00,WUHU21623XXSP,2013-08-22 00:12:00,
2013-08-21 20:17:00,83.6,67.0,29.96,WSW,247,0.0,0.0,57,0.00,,,0.00,WUHU21623XXSP,2013-08-22 00:17:00,
2013-08-21 20:22:00,83.3,66.7,29.96,WSW,247,0.0,0.0,57,0.00,,,0.00,WUHU21623XXSP,2013-08-22 00:22:00,
2013-08-21 20:27:00,83.1,66.5,29.96,WSW,247,0.0,0.0,57,0.00,,,0.00,WUHU21623XXSP,2013-08-22 00:27:00,
2013-08-21 20:32:00,82.7,66.7,29.97,WSW,247,0.0,0.0,58,0.00,,,0.00,WUHU21623XXSP,2013-08-22 00:32:00,
2013-08-21 20:37:00,82.4,66.4,29.97,WSW,247,0.0,0.0,58,0.00,,,0.00,WUHU21623XXSP,2013-08-22 00:37:00,
2013-08-21 20:43:00,82.0,66.0,29.98,WSW,247,0.0,0.0,58,0.00,,,0.00,WUHU21623XXSP,2013-08-22 00:43:00,
2013-08-21 20:48:00,81.5,65.5,29.98,WSW,247,0.0,0.0,58,0.00,,,0.00,WUHU21623XXSP,2013-08-22 00:48:00,
2013-08-21 20:53:00,81.1,65.6,29.98,WSW,247,0.0,0.0,59,0.00,,,0.00,WUHU21623XXSP,2013-08-22 00:53:00,
2013-08-21 20:58:00,80.9,65.5,29.98,WSW,247,0.0,0.0,59,0.00,,,0.00,WUHU21623XXSP,2013-08-22 00:58:00,
2013-08-21 21:03:00,80.6,65.7,29.98,WSW,247,0.0,0.0,60,0.00,,,0.00,WUHU21623XXSP,2013-08-22 01:03:00,
2013-08-21 21:08:00,80.2,65.3,29.99,WSW,247,0.0,0.0,60,0.00,,,0.00,WUHU21623XXSP,2013-08-22 01:08:00,
2013-08-21 21:13:00,80.0,65.6,29.99,WSW,247,0.0,0.0,61,0.00,,,0.00,WUHU21623XXSP,2013-08-22 01:13:00,
2013-08-21 21:18:00,79.5,65.6,30.00,WSW,247,0.0,0.0,62,0.00,,,0.00,WUHU21623XXSP,2013-08-22 01:18:00,
2013-08-21 21:23:00,79.1,65.2,30.00,WSW,247,0.0,0.0,62,0.00,,,0.00,WUHU21623XXSP,2013-08-22 01:23:00,
2013-08-21 21:28:00,78.8,65.4,30.01,WSW,247,0.0,0.0,63,0.00,,,0.00,WUHU21623XXSP,2013-08-22 01:28:00,
2013-08-21 21:33:00,78.4,65.0,30.01,WSW,247,0.0,0.0,63,0.00,,,0.00,WUHU21623XXSP,2013-08-22 01:33:00,
2013-08-21 21:38:00,78.2,65.3,30.01,WSW,247,0.0,0.0,64,0.00,,,0.00,WUHU21623XXSP,2013-08-22 01:38:00,
2013-08-21 21:43:00,78.1,65.2,30.01,WSW,247,0.0,0.0,64,0.00,,,0.00,WUHU21623XXSP,2013-08-22 01:43:00,
2013-08-21 21:48:00,77.9,65.0,30.01,WSW,247,0.0,0.0,64,0.00,,,0.00,WUHU21623XXSP,2013-08-22 01:48:00,
2013-08-21 21:53:00,77.7,64.8,30.01,WSW,247,0.0,0.0,64,0.00,,,0.00,WUHU21623XXSP,2013-08-22 01:53:00,
2013-08-21 21:58:00,77.5,64.6,30.01,WSW,247,0.0,0.0,64,0.00,,,0.00,WUHU21623XXSP,2013-08-22 01:58:00,
2013-08-21 22:03:00,77.3,64.4,30.01,WSW,247,0.0,0.0,64,0.00,,,0.00,WUHU21623XXSP,2013-08-22 02:03:00,
2013-08-21 22:08:00,77.2,64.8,30.01,WSW,247,0.0,0.0,65,0.00,,,0.00,WUHU21623XXSP,2013-08-22 02:08:00,
2013-08-21 22:13:00,77.2,64.8,30.01,WSW,247,0.0,0.0,65,0.00,,,0.00,WUHU21623XXSP,2013-08-22 02:13:00,
2013-08-21 22:18:00,77.0,64.6,30.01,WSW,247,0.0,0.0,65,0.00,,,0.00,WUHU21623XXSP,2013-08-22 02:18:00,
2013-08-21 22:23:00,77.0,65.0,30.01,WSW,247,0.0,0.0,66,0.00,,,0.00,WUHU21623XXSP,2013-08-22 02:23:00,
2013-08-21 22:28:00,76.8,64.8,30.02,WSW,247,0.0,0.0,66,0.00,,,0.00,WUHU21623XXSP,2013-08-22 02:28:00,
2013-08-21 22:33:00,76.6,65.0,30.01,WSW,247,0.0,0.0,67,0.00,,,0.00,WUHU21623XXSP,2013-08-22 02:33:00,
2013-08-21 22:38:00,76.6,65.0,30.01,WSW,247,0.0,0.0,67,0.00,,,0.00,WUHU21623XXSP,2013-08-22 02:38:00,
2013-08-21 22:43:00,76.6,65.0,30.01,WSW,247,0.0,0.0,67,0.00,,,0.00,WUHU21623XXSP,2013-08-22 02:43:00,
2013-08-21 22:48:00,76.6,65.5,30.01,WSW,247,0.0,0.0,68,0.00,,,0.00,WUHU21623XXSP,2013-08-22 02:48:00,
2013-08-21 22:54:00,76.7,65.5,30.01,WSW,247,0.0,0.0,68,0.00,,,0.00,WUHU21623XXSP,2013-08-22 02:54:00,
2013-08-21 22:59:00,76.7,65.6,30.01,WSW,247,0.0,0.0,68,0.00,,,0.00,WUHU21623XXSP,2013-08-22 02:59:00,
2013-08-21 23:04:00,77.0,65.4,30.01,WSW,247,0.0,0.0,67,0.00,,,0.00,WUHU21623XXSP,2013-08-22 03:04:00,
2013-08-21 23:09:00,77.0,65.4,30.00,West,270,0.0,0.0,67,0.00,,,0.00,WUHU21623XXSP,2013-08-22 03:09:00,
2013-08-21 23:14:00,77.2,65.7,30.00,WSW,247,0.0,0.0,67,0.00,,,0.00,WUHU21623XXSP,2013-08-22 03:14:00,
2013-08-21 23:20:00,77.3,65.7,30.00,WSW,247,0.0,0.0,67,0.00,,,0.00,WUHU21623XXSP,2013-08-22 03:20:00,
2013-08-21 23:25:00,77.3,65.7,30.00,WSW,247,0.0,0.0,67,0.00,,,0.00,WUHU21623XXSP,2013-08-22 03:25:00,
2013-08-21 23:30:00,77.4,65.8,30.00,WSW,247,0.0,0.0,67,0.00,,,0.00,WUHU21623XXSP,2013-08-22 03:30:00,
2013-08-21 23:35:00,77.4,65.8,30.00,WSW,247,0.0,0.0,67,0.00,,,0.00,WUHU21623XXSP,2013-08-22 03:35:00,
2013-08-21 23:40:00,77.4,65.9,30.01,WSW,247,0.0,0.0,67,0.00,,,0.00,WUHU21623XXSP,2013-08-22 03:40:00,
2013-08-21 23:45:00,77.5,65.9,30.01,WSW,247,0.0,0.0,67,0.00,,,0.00,WUHU21623XXSP,2013-08-22 03:45:00,
2013-08-21 23:50:00,77.1,65.5,30.01,WSW,247,0.0,0.0,67,0.00,,,0.00,WUHU21623XXSP,2013-08-22 03:50:00,
2013-08-21 23:55:00,77.2,65.6,30.01,WSW,247,0.0,0.0,67,0.00,,,0.00,WUHU21623XXSP,2013-08-22 03:55:00,